createdAt,value
2017-12-11T00:00:20.260Z,83.69
2017-12-11T00:01:25.962Z,83.70
2017-12-11T00:02:31.723Z,83.77
2017-12-11T00:03:38.201Z,83.74
2017-12-11T00:04:43.894Z,83.54
2017-12-11T00:05:49.598Z,83.62
2017-12-11T00:06:55.307Z,83.73
2017-12-11T00:08:01.037Z,83.73
2017-12-11T00:09:06.496Z,83.76
2017-12-11T00:10:11.863Z,84.07
2017-12-11T00:11:17.679Z,84.18
2017-12-11T00:12:23.075Z,84.14
2017-12-11T00:13:29.248Z,84.20
2017-12-11T00:14:34.668Z,84.37
2017-12-11T00:15:41.124Z,84.68
2017-12-11T00:16:46.220Z,84.87
2017-12-11T00:17:51.923Z,85.01
2017-12-11T00:18:57.640Z,85.11
2017-12-11T00:20:03.344Z,85.37
2017-12-11T00:21:08.724Z,85.52
2017-12-11T00:22:13.778Z,85.67
2017-12-11T00:23:19.562Z,85.84
2017-12-11T00:24:25.292Z,85.98
2017-12-11T00:25:31.801Z,86.04
2017-12-11T00:26:37.516Z,86.08
2017-12-11T00:27:42.602Z,86.06
2017-12-11T00:28:48.307Z,85.99
2017-12-11T00:29:54.074Z,85.88
2017-12-11T00:30:59.834Z,85.68
2017-12-11T00:32:05.537Z,85.47
2017-12-11T00:33:11.239Z,85.32
2017-12-11T00:34:17.706Z,85.09
2017-12-11T00:35:23.444Z,84.81
2017-12-11T00:36:29.910Z,84.57
2017-12-11T00:37:35.657Z,84.37
2017-12-11T00:38:41.558Z,84.16
2017-12-11T00:39:48.157Z,84.01
2017-12-11T00:40:53.976Z,83.84
2017-12-11T00:41:59.826Z,83.65
2017-12-11T00:43:05.987Z,83.46
2017-12-11T00:44:11.893Z,83.29
2017-12-11T00:45:17.271Z,83.19
2017-12-11T00:46:22.365Z,83.21
2017-12-11T00:47:28.171Z,83.17
2017-12-11T00:48:33.947Z,83.12
2017-12-11T00:49:39.691Z,83.04
2017-12-11T00:50:45.049Z,82.82
2017-12-11T00:51:50.440Z,82.74
2017-12-11T00:52:56.068Z,82.67
2017-12-11T00:54:01.863Z,82.50
2017-12-11T00:55:08.368Z,82.49
2017-12-11T00:56:14.105Z,82.45
2017-12-11T00:57:19.494Z,82.37
2017-12-11T00:58:26.010Z,82.25
2017-12-11T00:59:31.834Z,82.22
2017-12-11T01:00:37.534Z,82.26
2017-12-11T01:01:43.794Z,82.19
2017-12-11T01:02:49.634Z,82.14
2017-12-11T01:03:55.792Z,82.09
2017-12-11T01:05:01.624Z,81.99
2017-12-11T01:06:07.676Z,81.86
2017-12-11T01:07:13.827Z,81.75
2017-12-11T01:08:19.671Z,81.74
2017-12-11T01:09:25.485Z,81.69
2017-12-11T01:10:30.583Z,81.64
2017-12-11T01:11:36.385Z,81.57
2017-12-11T01:12:41.767Z,81.52
2017-12-11T01:13:47.484Z,81.55
2017-12-11T01:14:53.208Z,81.56
2017-12-11T01:15:58.897Z,81.71
2017-12-11T01:17:04.587Z,81.71
2017-12-11T01:18:10.286Z,81.76
2017-12-11T01:19:16.169Z,81.79
2017-12-11T01:20:22.619Z,81.76
2017-12-11T01:21:28.767Z,81.79
2017-12-11T01:22:35.326Z,81.79
2017-12-11T01:23:41.025Z,81.81
2017-12-11T01:24:47.128Z,81.85
2017-12-11T01:25:52.502Z,81.89
2017-12-11T01:26:58.195Z,81.80
2017-12-11T01:28:03.885Z,81.93
2017-12-11T01:29:09.605Z,81.90
2017-12-11T01:30:15.320Z,81.88
2017-12-11T01:31:20.170Z,81.88
2017-12-11T01:32:25.900Z,81.93
2017-12-11T01:33:31.629Z,81.97
2017-12-11T01:34:37.532Z,82.00
2017-12-11T01:35:43.266Z,82.04
2017-12-11T01:36:48.680Z,81.96
2017-12-11T01:37:54.441Z,82.07
2017-12-11T01:39:00.168Z,82.12
2017-12-11T01:40:05.484Z,82.12
2017-12-11T01:41:10.563Z,82.11
2017-12-11T01:42:16.382Z,82.08
2017-12-11T01:43:21.780Z,81.99
2017-12-11T01:44:27.156Z,81.87
2017-12-11T01:45:32.214Z,81.76
2017-12-11T01:46:37.308Z,81.66
2017-12-11T01:47:43.796Z,81.54
2017-12-11T01:48:49.606Z,81.40
2017-12-11T01:49:55.320Z,81.22
2017-12-11T01:51:00.351Z,81.21
2017-12-11T01:52:05.456Z,81.12
2017-12-11T01:53:11.146Z,80.98
2017-12-11T01:54:16.877Z,80.89
2017-12-11T01:55:22.762Z,80.80
2017-12-11T01:56:28.464Z,80.64
2017-12-11T01:57:34.206Z,80.45
2017-12-11T01:58:39.919Z,80.28
2017-12-11T01:59:45.825Z,80.22
2017-12-11T02:00:51.527Z,80.06
2017-12-11T02:01:57.250Z,79.93
2017-12-11T02:03:02.684Z,79.86
2017-12-11T02:04:08.392Z,79.66
2017-12-11T02:05:14.095Z,79.39
2017-12-11T02:06:19.799Z,79.08
2017-12-11T02:07:25.504Z,78.88
2017-12-11T02:08:31.216Z,78.49
2017-12-11T02:09:37.943Z,78.11
2017-12-11T02:10:43.521Z,77.84
2017-12-11T02:11:49.971Z,77.56
2017-12-11T02:12:56.432Z,77.40
2017-12-11T02:14:02.202Z,77.23
2017-12-11T02:15:08.904Z,77.07
2017-12-11T02:16:13.965Z,76.66
2017-12-11T02:17:20.457Z,76.60
2017-12-11T02:18:26.181Z,76.42
2017-12-11T02:19:32.009Z,76.32
2017-12-11T02:20:37.070Z,76.27
2017-12-11T02:21:42.178Z,76.12
2017-12-11T02:22:47.219Z,76.12
2017-12-11T02:23:52.421Z,76.09
2017-12-11T02:24:58.591Z,76.05
2017-12-11T02:26:03.631Z,76.08
2017-12-11T02:27:08.677Z,76.10
2017-12-11T02:28:13.721Z,76.10
2017-12-11T02:29:18.769Z,76.14
2017-12-11T02:30:24.474Z,76.28
2017-12-11T02:31:29.574Z,76.32
2017-12-11T02:32:34.673Z,76.40
2017-12-11T02:33:40.512Z,76.41
2017-12-11T02:34:46.326Z,76.41
2017-12-11T02:35:52.504Z,76.46
2017-12-11T02:36:58.124Z,76.41
2017-12-11T02:38:03.524Z,76.36
2017-12-11T02:39:09.243Z,76.39
2017-12-11T02:40:14.269Z,76.38
2017-12-11T02:41:19.352Z,76.42
2017-12-11T02:42:24.381Z,76.43
2017-12-11T02:43:30.509Z,76.44
2017-12-11T02:44:35.535Z,76.45
2017-12-11T02:45:40.601Z,76.42
2017-12-11T02:46:46.427Z,76.52
2017-12-11T02:47:52.236Z,76.50
2017-12-11T02:48:57.459Z,76.43
2017-12-11T02:50:03.157Z,76.35
2017-12-11T02:51:08.865Z,76.35
2017-12-11T02:52:14.600Z,76.39
2017-12-11T02:53:19.634Z,76.33
2017-12-11T02:54:25.347Z,76.30
2017-12-11T02:55:31.076Z,76.25
2017-12-11T02:56:36.772Z,76.28
2017-12-11T02:57:42.492Z,76.30
2017-12-11T02:58:48.974Z,76.26
2017-12-11T02:59:54.705Z,76.21
2017-12-11T03:01:00.865Z,76.28
2017-12-11T03:02:06.556Z,76.35
2017-12-11T03:03:11.961Z,76.36
2017-12-11T03:04:17.668Z,76.28
2017-12-11T03:05:24.147Z,76.19
2017-12-11T03:06:29.829Z,76.15
2017-12-11T03:07:35.529Z,76.12
2017-12-11T03:08:41.243Z,75.99
2017-12-11T03:09:47.726Z,76.02
2017-12-11T03:10:53.453Z,75.96
2017-12-11T03:11:59.900Z,75.88
2017-12-11T03:13:06.364Z,75.89
2017-12-11T03:14:12.089Z,75.91
2017-12-11T03:15:17.812Z,75.90
2017-12-11T03:16:23.526Z,75.88
2017-12-11T03:17:29.232Z,75.80
2017-12-11T03:18:34.937Z,75.82
2017-12-11T03:19:40.832Z,75.79
2017-12-11T03:20:46.542Z,75.75
2017-12-11T03:21:53.016Z,75.88
2017-12-11T03:22:59.476Z,75.83
2017-12-11T03:24:05.266Z,75.75
2017-12-11T03:25:10.988Z,75.82
2017-12-11T03:26:16.667Z,75.83
2017-12-11T03:27:22.390Z,75.75
2017-12-11T03:28:28.078Z,75.74
2017-12-11T03:29:33.817Z,75.73
2017-12-11T03:30:39.988Z,75.72
2017-12-11T03:31:45.359Z,75.63
2017-12-11T03:32:50.385Z,75.57
2017-12-11T03:33:55.764Z,75.61
2017-12-11T03:35:01.456Z,75.60
2017-12-11T03:36:07.207Z,75.59
2017-12-11T03:37:12.908Z,75.61
2017-12-11T03:38:18.597Z,75.65
2017-12-11T03:39:25.086Z,75.66
2017-12-11T03:40:30.808Z,75.64
2017-12-11T03:41:37.311Z,75.64
2017-12-11T03:42:43.046Z,75.58
2017-12-11T03:43:48.747Z,75.59
2017-12-11T03:44:55.229Z,75.58
2017-12-11T03:46:00.966Z,75.57
2017-12-11T03:47:06.711Z,75.54
2017-12-11T03:48:12.423Z,75.49
2017-12-11T03:49:18.976Z,75.47
2017-12-11T03:50:24.679Z,75.43
2017-12-11T03:51:30.385Z,75.25
2017-12-11T03:52:36.104Z,75.14
2017-12-11T03:53:41.800Z,75.02
2017-12-11T03:54:47.303Z,74.93
2017-12-11T03:55:53.239Z,74.89
2017-12-11T03:56:59.712Z,74.86
2017-12-11T03:58:05.467Z,74.90
2017-12-11T03:59:11.164Z,74.88
2017-12-11T04:00:16.885Z,74.79
2017-12-11T04:01:22.247Z,74.85
2017-12-11T04:02:28.729Z,74.83
2017-12-11T04:03:34.437Z,74.86
2017-12-11T04:04:41.117Z,74.89
2017-12-11T04:05:47.599Z,74.94
2017-12-11T04:06:53.289Z,75.01
2017-12-11T04:07:59.012Z,75.03
2017-12-11T04:09:03.992Z,75.09
2017-12-11T04:10:09.908Z,75.18
2017-12-11T04:11:15.596Z,75.18
2017-12-11T04:12:21.202Z,75.17
2017-12-11T04:13:27.672Z,75.20
2017-12-11T04:14:33.392Z,75.24
2017-12-11T04:15:39.860Z,75.23
2017-12-11T04:16:46.327Z,75.16
2017-12-11T04:17:52.016Z,75.16
2017-12-11T04:18:58.484Z,75.16
2017-12-11T04:20:04.033Z,75.11
2017-12-11T04:21:10.480Z,74.99
2017-12-11T04:22:16.173Z,74.86
2017-12-11T04:23:21.861Z,74.74
2017-12-11T04:24:27.564Z,74.65
2017-12-11T04:25:33.294Z,74.57
2017-12-11T04:26:38.990Z,74.36
2017-12-11T04:27:45.267Z,74.21
2017-12-11T04:28:51.726Z,74.20
2017-12-11T04:29:58.217Z,74.15
2017-12-11T04:31:03.933Z,74.06
2017-12-11T04:32:09.628Z,73.93
2017-12-11T04:33:16.838Z,73.95
2017-12-11T04:34:23.353Z,73.95
2017-12-11T04:35:29.284Z,73.84
2017-12-11T04:36:35.005Z,73.81
2017-12-11T04:37:40.504Z,73.74
2017-12-11T04:38:46.213Z,73.75
2017-12-11T04:39:51.923Z,73.71
2017-12-11T04:40:57.622Z,73.67
2017-12-11T04:42:04.384Z,73.59
2017-12-11T04:43:10.072Z,73.56
2017-12-11T04:44:15.764Z,73.53
2017-12-11T04:45:21.479Z,73.47
2017-12-11T04:46:27.192Z,73.40
2017-12-11T04:47:32.935Z,73.33
2017-12-11T04:48:38.700Z,73.23
2017-12-11T04:49:44.416Z,73.20
2017-12-11T04:50:50.115Z,73.11
2017-12-11T04:51:56.573Z,73.03
2017-12-11T04:53:03.068Z,73.03
2017-12-11T04:54:08.774Z,72.96
2017-12-11T04:55:15.231Z,72.90
2017-12-11T04:56:21.487Z,72.87
2017-12-11T04:57:27.944Z,72.69
2017-12-11T04:58:34.433Z,72.59
2017-12-11T04:59:40.137Z,72.55
2017-12-11T05:00:46.651Z,72.43
2017-12-11T05:01:52.391Z,72.25
2017-12-11T05:02:58.094Z,72.13
2017-12-11T05:04:04.576Z,72.08
2017-12-11T05:05:09.944Z,72.11
2017-12-11T05:06:15.340Z,72.10
2017-12-11T05:07:21.047Z,72.10
2017-12-11T05:08:26.724Z,72.11
2017-12-11T05:09:32.593Z,71.95
2017-12-11T05:10:38.608Z,71.98
2017-12-11T05:11:44.322Z,71.93
2017-12-11T05:12:50.060Z,71.86
2017-12-11T05:13:55.837Z,71.81
2017-12-11T05:15:01.632Z,71.80
2017-12-11T05:16:07.402Z,71.85
2017-12-11T05:17:13.194Z,71.81
2017-12-11T05:18:18.908Z,71.79
2017-12-11T05:19:24.597Z,71.82
2017-12-11T05:20:30.388Z,71.86
2017-12-11T05:21:35.431Z,71.87
2017-12-11T05:22:41.139Z,71.88
2017-12-11T05:23:46.834Z,71.83
2017-12-11T05:24:52.553Z,71.89
2017-12-11T05:25:58.279Z,71.96
2017-12-11T05:27:03.999Z,71.98
2017-12-11T05:28:09.769Z,72.00
2017-12-11T05:29:15.508Z,71.95
2017-12-11T05:30:21.222Z,71.95
2017-12-11T05:31:27.075Z,71.94
2017-12-11T05:32:32.943Z,71.90
2017-12-11T05:33:38.639Z,71.88
2017-12-11T05:34:45.089Z,71.91
2017-12-11T05:35:51.078Z,71.90
2017-12-11T05:36:56.183Z,71.84
2017-12-11T05:38:02.009Z,71.78
2017-12-11T05:39:08.698Z,71.78
2017-12-11T05:40:14.426Z,71.70
2017-12-11T05:41:19.799Z,71.68
2017-12-11T05:42:25.531Z,71.73
2017-12-11T05:43:31.239Z,71.71
2017-12-11T05:44:36.948Z,71.71
2017-12-11T05:45:43.645Z,71.66
2017-12-11T05:46:49.360Z,71.67
2017-12-11T05:47:55.844Z,71.70
2017-12-11T05:49:01.616Z,71.71
2017-12-11T05:50:07.333Z,71.79
2017-12-11T05:51:13.046Z,71.91
2017-12-11T05:52:19.513Z,71.99
2017-12-11T05:53:26.023Z,72.02
2017-12-11T05:54:31.729Z,72.06
2017-12-11T05:55:37.558Z,72.09
2017-12-11T05:56:44.071Z,72.23
2017-12-11T05:57:50.014Z,72.23
2017-12-11T05:58:55.828Z,72.27
2017-12-11T06:00:01.705Z,72.30
2017-12-11T06:01:07.657Z,72.31
2017-12-11T06:02:13.888Z,72.31
2017-12-11T06:03:19.810Z,72.26
2017-12-11T06:04:25.542Z,72.24
2017-12-11T06:05:31.469Z,72.16
2017-12-11T06:06:37.963Z,72.07
2017-12-11T06:07:43.989Z,71.96
2017-12-11T06:08:49.766Z,71.88
2017-12-11T06:09:55.505Z,71.81
2017-12-11T06:11:01.265Z,71.72
2017-12-11T06:12:07.073Z,71.58
2017-12-11T06:13:12.777Z,71.43
2017-12-11T06:14:18.308Z,71.30
2017-12-11T06:15:24.049Z,71.26
2017-12-11T06:16:30.716Z,71.27
2017-12-11T06:17:36.898Z,71.26
2017-12-11T06:18:43.380Z,71.32
2017-12-11T06:19:49.223Z,71.40
2017-12-11T06:20:54.976Z,71.50
2017-12-11T06:22:00.861Z,71.61
2017-12-11T06:23:06.620Z,71.83
2017-12-11T06:24:12.863Z,71.86
2017-12-11T06:25:18.621Z,71.88
2017-12-11T06:26:25.117Z,71.95
2017-12-11T06:27:30.852Z,72.04
2017-12-11T06:28:37.353Z,72.03
2017-12-11T06:29:43.241Z,72.01
2017-12-11T06:30:49.065Z,71.95
2017-12-11T06:31:54.870Z,71.88
2017-12-11T06:33:01.489Z,71.84
2017-12-11T06:34:07.288Z,71.79
2017-12-11T06:35:13.277Z,71.73
2017-12-11T06:36:20.080Z,71.59
2017-12-11T06:37:27.425Z,71.44
2017-12-11T06:38:34.688Z,71.46
2017-12-11T06:39:41.942Z,71.48
2017-12-11T06:40:48.380Z,71.54
2017-12-11T06:41:54.286Z,71.54
2017-12-11T06:42:59.995Z,71.40
2017-12-11T06:44:06.298Z,71.32
2017-12-11T06:45:12.119Z,71.28
2017-12-11T06:46:18.779Z,71.25
2017-12-11T06:47:24.502Z,71.23
2017-12-11T06:48:30.313Z,71.25
2017-12-11T06:49:36.039Z,71.27
2017-12-11T06:50:41.773Z,71.35
2017-12-11T06:51:47.537Z,71.42
2017-12-11T06:52:54.065Z,71.55
2017-12-11T06:54:00.503Z,71.66
2017-12-11T06:55:06.323Z,71.35
2017-12-11T06:56:12.208Z,71.32
2017-12-11T06:57:18.000Z,71.13
2017-12-11T06:58:23.902Z,71.06
2017-12-11T06:59:29.687Z,71.07
2017-12-11T07:00:35.450Z,71.05
2017-12-11T07:01:41.144Z,71.07
2017-12-11T07:02:47.731Z,71.12
2017-12-11T07:03:53.528Z,71.11
2017-12-11T07:05:00.082Z,70.93
2017-12-11T07:06:05.790Z,70.69
2017-12-11T07:07:11.492Z,70.49
2017-12-11T07:08:17.253Z,70.45
2017-12-11T07:09:23.765Z,70.54
2017-12-11T07:10:29.493Z,70.65
2017-12-11T07:11:35.189Z,70.73
2017-12-11T07:12:41.655Z,70.82
2017-12-11T07:13:48.141Z,70.88
2017-12-11T07:14:53.926Z,71.11
2017-12-11T07:15:59.666Z,71.14
2017-12-11T07:17:05.372Z,71.13
2017-12-11T07:18:11.178Z,71.25
2017-12-11T07:19:17.640Z,71.18
2017-12-11T07:20:24.128Z,71.11
2017-12-11T07:21:29.861Z,71.01
2017-12-11T07:22:35.620Z,71.02
2017-12-11T07:23:41.359Z,71.02
2017-12-11T07:24:47.892Z,71.04
2017-12-11T07:25:54.355Z,71.02
2017-12-11T07:27:00.088Z,70.91
2017-12-11T07:28:06.604Z,70.57
2017-12-11T07:29:12.320Z,70.22
2017-12-11T07:30:18.023Z,69.86
2017-12-11T07:31:24.499Z,69.72
2017-12-11T07:32:30.310Z,69.62
2017-12-11T07:33:36.023Z,69.63
2017-12-11T07:34:41.755Z,69.59
2017-12-11T07:35:47.477Z,69.56
2017-12-11T07:36:53.195Z,69.52
2017-12-11T07:37:59.050Z,69.47
2017-12-11T07:39:04.247Z,69.47
2017-12-11T07:40:09.968Z,69.36
2017-12-11T07:41:15.693Z,69.14
2017-12-11T07:42:22.163Z,68.79
2017-12-11T07:43:27.888Z,68.77
2017-12-11T07:44:34.354Z,68.87
2017-12-11T07:45:40.070Z,68.94
2017-12-11T07:46:46.593Z,68.95
2017-12-11T07:47:52.284Z,69.11
2017-12-11T07:48:58.799Z,69.29
2017-12-11T07:50:04.510Z,69.44
2017-12-11T07:51:10.206Z,69.56
2017-12-11T07:52:15.925Z,69.63
2017-12-11T07:53:21.836Z,69.66
2017-12-11T07:54:27.613Z,69.59
2017-12-11T07:55:33.325Z,69.53
2017-12-11T07:56:39.050Z,69.52
2017-12-11T07:57:44.739Z,69.54
2017-12-11T07:58:50.492Z,69.53
2017-12-11T07:59:56.236Z,69.38
2017-12-11T08:01:01.945Z,69.13
2017-12-11T08:02:07.664Z,68.88
2017-12-11T08:03:13.359Z,68.48
2017-12-11T08:04:19.071Z,68.38
2017-12-11T08:05:24.802Z,68.37
2017-12-11T08:06:30.569Z,68.28
2017-12-11T08:07:36.297Z,68.25
2017-12-11T08:08:42.025Z,68.06
2017-12-11T08:09:47.747Z,67.93
2017-12-11T08:10:53.466Z,67.78
2017-12-11T08:11:59.185Z,67.74
2017-12-11T08:13:04.872Z,67.65
2017-12-11T08:14:10.597Z,67.47
2017-12-11T08:15:16.380Z,67.33
2017-12-11T08:16:22.099Z,67.20
2017-12-11T08:17:27.875Z,67.02
2017-12-11T08:18:33.581Z,66.84
2017-12-11T08:19:39.272Z,66.54
2017-12-11T08:20:44.979Z,66.38
2017-12-11T08:21:50.718Z,66.33
2017-12-11T08:22:56.444Z,66.25
2017-12-11T08:24:02.179Z,66.13
2017-12-11T08:25:07.888Z,66.08
2017-12-11T08:26:14.391Z,66.02
2017-12-11T08:27:19.805Z,66.03
2017-12-11T08:28:25.553Z,66.22
2017-12-11T08:29:31.287Z,66.52
2017-12-11T08:30:37.079Z,66.90
2017-12-11T08:31:42.884Z,67.16
2017-12-11T08:32:48.703Z,67.60
2017-12-11T08:33:54.486Z,67.84
2017-12-11T08:35:00.493Z,68.23
2017-12-11T08:36:07.178Z,68.33
2017-12-11T08:37:12.942Z,68.44
2017-12-11T08:38:18.906Z,68.44
2017-12-11T08:39:24.611Z,68.51
2017-12-11T08:40:30.455Z,68.41
2017-12-11T08:41:36.212Z,68.28
2017-12-11T08:42:42.012Z,68.23
2017-12-11T08:43:48.510Z,68.08
2017-12-11T08:44:54.209Z,67.67
2017-12-11T08:45:59.718Z,66.73
2017-12-11T08:47:05.419Z,66.04
2017-12-11T08:48:11.133Z,65.49
2017-12-11T08:49:16.956Z,64.73
2017-12-11T08:50:23.540Z,64.26
2017-12-11T08:51:29.282Z,64.01
2017-12-11T08:52:34.974Z,63.89
2017-12-11T08:53:41.228Z,63.77
2017-12-11T08:54:46.752Z,63.85
2017-12-11T08:55:52.454Z,63.94
2017-12-11T08:56:58.145Z,63.98
2017-12-11T08:58:03.852Z,64.18
2017-12-11T08:59:09.729Z,64.38
2017-12-11T09:00:15.579Z,64.71
2017-12-11T09:01:21.285Z,64.98
2017-12-11T09:02:26.967Z,65.02
2017-12-11T09:03:33.585Z,64.99
2017-12-11T09:04:39.353Z,65.25
2017-12-11T09:05:45.150Z,65.78
2017-12-11T09:06:50.830Z,66.20
2017-12-11T09:07:56.578Z,66.46
2017-12-11T09:09:02.274Z,66.52
2017-12-11T09:10:07.960Z,66.41
2017-12-11T09:11:13.783Z,66.35
2017-12-11T09:12:19.615Z,66.38
2017-12-11T09:13:25.480Z,66.60
2017-12-11T09:14:31.269Z,66.89
2017-12-11T09:15:37.052Z,66.99
2017-12-11T09:16:42.867Z,67.09
2017-12-11T09:17:48.769Z,67.19
2017-12-11T09:18:54.576Z,67.43
2017-12-11T09:20:00.443Z,67.69
2017-12-11T09:21:06.171Z,67.81
2017-12-11T09:22:12.245Z,67.93
2017-12-11T09:23:17.936Z,68.07
2017-12-11T09:24:23.633Z,68.33
2017-12-11T09:25:29.356Z,68.24
2017-12-11T09:26:35.112Z,68.14
2017-12-11T09:27:40.833Z,67.85
2017-12-11T09:28:46.548Z,67.72
2017-12-11T09:29:52.313Z,67.42
2017-12-11T09:30:58.103Z,67.38
2017-12-11T09:32:04.051Z,67.42
2017-12-11T09:33:09.789Z,67.64
2017-12-11T09:34:15.501Z,67.55
2017-12-11T09:35:21.231Z,67.55
2017-12-11T09:36:26.953Z,67.54
2017-12-11T09:37:32.667Z,67.66
2017-12-11T09:38:38.455Z,68.00
2017-12-11T09:39:44.138Z,68.07
2017-12-11T09:40:49.567Z,68.31
2017-12-11T09:41:55.273Z,68.30
2017-12-11T09:43:00.657Z,68.34
2017-12-11T09:44:06.404Z,68.46
2017-12-11T09:45:12.104Z,68.54
2017-12-11T09:46:18.589Z,68.46
2017-12-11T09:47:24.285Z,68.47
2017-12-11T09:48:30.016Z,68.44
2017-12-11T09:49:35.986Z,68.42
2017-12-11T09:50:41.817Z,68.34
2017-12-11T09:51:47.532Z,68.31
2017-12-11T09:52:54.077Z,68.33
2017-12-11T09:53:59.821Z,68.17
2017-12-11T09:55:05.562Z,67.97
2017-12-11T09:56:11.273Z,67.94
2017-12-11T09:57:17.033Z,68.18
2017-12-11T09:58:22.912Z,68.16
2017-12-11T09:59:28.839Z,68.27
2017-12-11T10:00:34.552Z,68.14
2017-12-11T10:01:40.260Z,68.22
2017-12-11T10:02:45.625Z,68.37
2017-12-11T10:03:51.355Z,68.54
2017-12-11T10:04:57.852Z,68.59
2017-12-11T10:06:05.303Z,68.62
2017-12-11T10:07:11.194Z,68.66
2017-12-11T10:08:16.920Z,68.60
2017-12-11T10:09:23.167Z,68.59
2017-12-11T10:10:28.886Z,68.54
2017-12-11T10:11:34.630Z,68.59
2017-12-11T10:12:40.408Z,68.70
2017-12-11T10:13:46.110Z,68.67
2017-12-11T10:14:51.879Z,68.75
2017-12-11T10:15:57.587Z,68.83
2017-12-11T10:17:04.095Z,68.81
2017-12-11T10:18:09.798Z,68.75
2017-12-11T10:19:14.853Z,68.88
2017-12-11T10:20:20.611Z,68.96
2017-12-11T10:21:26.328Z,69.04
2017-12-11T10:22:32.069Z,69.31
2017-12-11T10:23:37.863Z,69.53
2017-12-11T10:24:43.545Z,69.61
2017-12-11T10:25:49.248Z,69.81
2017-12-11T10:26:55.042Z,70.02
2017-12-11T10:28:00.804Z,70.18
2017-12-11T10:29:06.568Z,70.30
2017-12-11T10:30:12.615Z,70.55
2017-12-11T10:31:18.388Z,70.54
2017-12-11T10:32:24.205Z,70.64
2017-12-11T10:33:29.965Z,70.77
2017-12-11T10:34:35.694Z,70.75
2017-12-11T10:35:41.483Z,70.76
2017-12-11T10:36:47.767Z,70.84
2017-12-11T10:37:53.493Z,70.87
2017-12-11T10:38:59.253Z,70.88
2017-12-11T10:40:05.034Z,70.86
2017-12-11T10:41:11.501Z,70.87
2017-12-11T10:42:18.029Z,71.03
2017-12-11T10:43:24.511Z,71.16
2017-12-11T10:44:31.195Z,71.37
2017-12-11T10:45:37.783Z,71.54
2017-12-11T10:46:43.612Z,71.69
2017-12-11T10:47:49.320Z,71.60
2017-12-11T10:48:55.828Z,71.45
2017-12-11T10:50:01.599Z,71.46
2017-12-11T10:51:07.313Z,71.43
2017-12-11T10:52:13.026Z,71.28
2017-12-11T10:53:18.760Z,71.11
2017-12-11T10:54:24.458Z,71.18
2017-12-11T10:55:30.269Z,71.06
2017-12-11T10:56:36.032Z,71.09
2017-12-11T10:57:41.770Z,71.05
2017-12-11T10:58:47.546Z,71.19
2017-12-11T10:59:54.162Z,71.32
2017-12-11T11:00:59.947Z,71.36
2017-12-11T11:02:06.422Z,71.40
2017-12-11T11:03:12.196Z,71.54
2017-12-11T11:04:17.942Z,71.46
2017-12-11T11:05:23.702Z,71.55
2017-12-11T11:06:30.276Z,71.97
2017-12-11T11:07:36.802Z,72.02
2017-12-11T11:08:42.499Z,72.12
2017-12-11T11:09:48.212Z,71.94
2017-12-11T11:10:54.692Z,72.60
2017-12-11T11:12:00.501Z,72.85
2017-12-11T11:13:06.206Z,73.01
2017-12-11T11:14:11.938Z,72.97
2017-12-11T11:15:17.651Z,73.05
2017-12-11T11:16:23.361Z,73.07
2017-12-11T11:17:29.119Z,73.36
2017-12-11T11:18:36.061Z,73.44
2017-12-11T11:19:42.900Z,73.79
2017-12-11T11:20:48.699Z,74.04
2017-12-11T11:21:54.606Z,73.77
2017-12-11T11:23:00.471Z,74.02
2017-12-11T11:24:06.104Z,74.01
2017-12-11T11:25:12.622Z,74.17
2017-12-11T11:26:18.424Z,74.38
2017-12-11T11:27:24.939Z,74.45
2017-12-11T11:28:30.702Z,74.45
2017-12-11T11:29:37.225Z,74.37
2017-12-11T11:30:43.144Z,74.39
2017-12-11T11:31:48.882Z,74.52
2017-12-11T11:32:54.653Z,74.54
2017-12-11T11:34:00.409Z,74.33
2017-12-11T11:35:05.884Z,74.45
2017-12-11T11:36:12.006Z,74.36
2017-12-11T11:37:17.795Z,74.36
2017-12-11T11:38:24.288Z,74.17
2017-12-11T11:39:30.039Z,74.06
2017-12-11T11:40:35.765Z,73.97
2017-12-11T11:41:41.503Z,73.83
2017-12-11T11:42:47.228Z,73.71
2017-12-11T11:43:53.627Z,73.61
2017-12-11T11:44:59.363Z,73.55
2017-12-11T11:46:05.351Z,73.44
2017-12-11T11:47:11.099Z,73.40
2017-12-11T11:48:16.915Z,73.57
2017-12-11T11:49:22.681Z,73.60
2017-12-11T11:50:29.270Z,73.74
2017-12-11T11:51:35.795Z,73.79
2017-12-11T11:52:41.569Z,73.84
2017-12-11T11:53:47.357Z,74.10
2017-12-11T11:54:53.087Z,74.23
2017-12-11T11:55:58.654Z,74.35
2017-12-11T11:57:04.104Z,74.47
2017-12-11T11:58:10.014Z,74.64
2017-12-11T11:59:15.490Z,74.96
2017-12-11T12:00:20.555Z,75.16
2017-12-11T12:01:25.781Z,75.45
2017-12-11T12:02:31.557Z,75.49
2017-12-11T12:03:37.288Z,75.49
2017-12-11T12:04:43.138Z,75.56
2017-12-11T12:05:48.913Z,75.45
2017-12-11T12:06:54.719Z,75.39
2017-12-11T12:08:00.636Z,75.47
2017-12-11T12:09:05.815Z,75.71
2017-12-11T12:10:11.665Z,75.92
2017-12-11T12:11:17.486Z,75.71
2017-12-11T12:12:22.956Z,75.65
2017-12-11T12:13:29.478Z,75.80
2017-12-11T12:14:35.365Z,75.93
2017-12-11T12:15:41.274Z,75.81
2017-12-11T12:16:48.028Z,75.87
2017-12-11T12:17:54.108Z,76.05
2017-12-11T12:19:00.220Z,76.13
2017-12-11T12:20:06.020Z,76.14
2017-12-11T12:21:12.541Z,76.33
2017-12-11T12:22:18.343Z,76.27
2017-12-11T12:23:24.285Z,76.55
2017-12-11T12:24:29.793Z,76.94
2017-12-11T12:25:35.525Z,77.08
2017-12-11T12:26:41.354Z,77.07
2017-12-11T12:27:47.152Z,77.33
2017-12-11T12:28:52.940Z,77.33
2017-12-11T12:29:58.553Z,77.23
2017-12-11T12:31:04.099Z,77.15
2017-12-11T12:32:09.949Z,77.35
2017-12-11T12:33:15.385Z,77.44
2017-12-11T12:34:21.245Z,77.73
2017-12-11T12:35:27.792Z,77.72
2017-12-11T12:36:34.393Z,77.86
2017-12-11T12:37:40.132Z,77.86
2017-12-11T12:38:46.558Z,77.95
2017-12-11T12:39:53.068Z,78.02
2017-12-11T12:40:58.448Z,77.89
2017-12-11T12:42:04.788Z,78.13
2017-12-11T12:43:10.673Z,78.10
2017-12-11T12:44:16.428Z,78.29
2017-12-11T12:45:22.260Z,78.33
2017-12-11T12:46:27.864Z,78.34
2017-12-11T12:47:33.817Z,78.39
2017-12-11T12:48:40.312Z,78.44
2017-12-11T12:49:46.049Z,78.41
2017-12-11T12:50:51.810Z,78.78
2017-12-11T12:51:57.626Z,79.02
2017-12-11T12:53:03.372Z,78.98
2017-12-11T12:54:09.099Z,79.02
2017-12-11T12:55:14.813Z,79.16
2017-12-11T12:56:21.366Z,79.32
2017-12-11T12:57:27.883Z,79.34
2017-12-11T12:58:33.740Z,79.24
2017-12-11T12:59:39.445Z,79.46
2017-12-11T13:00:45.160Z,80.00
2017-12-11T13:01:50.915Z,80.28
2017-12-11T13:02:57.403Z,80.64
2017-12-11T13:04:03.112Z,80.85
2017-12-11T13:05:09.672Z,81.11
2017-12-11T13:06:16.215Z,81.15
2017-12-11T13:07:22.032Z,81.39
2017-12-11T13:08:27.755Z,81.67
2017-12-11T13:09:33.477Z,81.69
2017-12-11T13:10:39.180Z,81.76
2017-12-11T13:11:44.897Z,81.95
2017-12-11T13:12:50.654Z,81.99
2017-12-11T13:13:57.126Z,82.39
2017-12-11T13:15:02.840Z,82.45
2017-12-11T13:16:08.542Z,82.67
2017-12-11T13:17:14.240Z,83.08
2017-12-11T13:18:20.784Z,83.28
2017-12-11T13:19:26.484Z,83.31
2017-12-11T13:20:32.263Z,83.49
2017-12-11T13:21:37.991Z,83.71
2017-12-11T13:22:43.684Z,84.09
2017-12-11T13:23:50.192Z,84.53
2017-12-11T13:24:55.904Z,84.66
2017-12-11T13:26:01.618Z,84.59
2017-12-11T13:27:08.101Z,84.61
2017-12-11T13:28:13.866Z,84.78
2017-12-11T13:29:21.873Z,84.80
2017-12-11T13:30:27.844Z,84.97
2017-12-11T13:31:33.550Z,84.97
2017-12-11T13:32:39.113Z,84.90
2017-12-11T13:33:44.645Z,84.93
2017-12-11T13:34:50.427Z,84.88
2017-12-11T13:35:56.935Z,84.99
2017-12-11T13:37:02.646Z,84.84
2017-12-11T13:38:08.419Z,84.99
2017-12-11T13:39:14.866Z,84.97
2017-12-11T13:40:20.689Z,84.95
2017-12-11T13:41:26.481Z,85.07
2017-12-11T13:42:32.220Z,85.01
2017-12-11T13:43:38.729Z,85.18
2017-12-11T13:44:44.436Z,85.25
2017-12-11T13:45:50.196Z,85.32
2017-12-11T13:46:56.712Z,85.29
2017-12-11T13:48:02.415Z,85.22
2017-12-11T13:49:07.933Z,85.21
2017-12-11T13:50:13.724Z,85.39
2017-12-11T13:51:19.215Z,85.52
2017-12-11T13:52:24.933Z,85.49
2017-12-11T13:53:31.542Z,85.49
2017-12-11T13:54:37.440Z,85.61
2017-12-11T13:55:43.193Z,85.79
2017-12-11T13:56:49.677Z,85.88
2017-12-11T13:57:55.429Z,85.88
2017-12-11T13:59:01.194Z,85.98
2017-12-11T14:00:06.917Z,85.94
2017-12-11T14:01:12.692Z,85.80
2017-12-11T14:02:19.173Z,85.85
2017-12-11T14:03:25.120Z,85.91
2017-12-11T14:04:31.175Z,85.81
2017-12-11T14:05:37.798Z,86.03
2017-12-11T14:06:44.091Z,86.05
2017-12-11T14:07:50.951Z,85.99